createdAt,value
2023-05-23T00:01:24.935Z,17.93
2023-05-23T00:03:56.902Z,17.83
2023-05-23T00:06:25.108Z,17.78
2023-05-23T00:08:53.242Z,17.71
2023-05-23T00:11:26.881Z,17.64
2023-05-23T00:13:55.201Z,17.54
2023-05-23T00:16:25.996Z,17.46
2023-05-23T00:18:54.042Z,17.43
2023-05-23T00:21:22.288Z,17.39
2023-05-23T00:23:50.519Z,17.32
2023-05-23T00:26:19.767Z,17.25
2023-05-23T00:28:48.094Z,17.20
2023-05-23T00:31:16.141Z,17.16
2023-05-23T00:33:45.532Z,17.14
2023-05-23T00:36:13.517Z,17.13
2023-05-23T00:38:41.518Z,17.10
2023-05-23T00:41:09.801Z,17.09
2023-05-23T00:43:37.919Z,17.05
2023-05-23T00:46:06.056Z,17.02
2023-05-23T00:48:34.250Z,16.99
2023-05-23T00:51:06.803Z,16.91
2023-05-23T00:53:35.948Z,16.79
2023-05-23T00:56:04.103Z,16.72
2023-05-23T00:58:32.454Z,16.65
2023-05-23T01:01:00.482Z,16.61
2023-05-23T01:03:30.275Z,16.59
2023-05-23T01:05:58.665Z,16.57
2023-05-23T01:08:28.006Z,16.54
2023-05-23T01:10:56.230Z,16.50
2023-05-23T01:13:29.743Z,16.44
2023-05-23T01:16:02.716Z,16.40
2023-05-23T01:18:34.557Z,16.35
2023-05-23T01:21:04.873Z,16.31
2023-05-23T01:23:56.943Z,16.19
2023-05-23T01:26:35.072Z,16.20
2023-05-23T01:31:39.142Z,16.24
2023-05-23T01:34:07.518Z,16.27
2023-05-23T01:36:36.472Z,16.28
2023-05-23T01:41:33.156Z,16.26
2023-05-23T01:44:02.385Z,16.23
2023-05-23T01:46:33.053Z,16.16
2023-05-23T01:49:02.390Z,16.07
2023-05-23T01:51:30.622Z,15.99
2023-05-23T01:53:59.687Z,15.96
2023-05-23T01:56:28.862Z,15.97
2023-05-23T01:58:56.857Z,15.97
2023-05-23T02:01:24.939Z,15.99
2023-05-23T02:03:54.414Z,15.94
2023-05-23T02:06:24.525Z,15.95
2023-05-23T02:08:52.642Z,15.90
2023-05-23T02:11:20.631Z,15.88
2023-05-23T02:13:48.690Z,15.86
2023-05-23T02:16:19.015Z,15.89
2023-05-23T02:18:47.436Z,15.97
2023-05-23T02:21:19.058Z,16.04
2023-05-23T02:23:47.752Z,16.11
2023-05-23T02:26:19.225Z,16.12
2023-05-23T02:28:49.075Z,16.14
2023-05-23T02:31:17.412Z,16.16
2023-05-23T02:33:48.160Z,16.16
2023-05-23T02:36:17.710Z,16.16
2023-05-23T02:38:45.743Z,16.19
2023-05-23T02:41:13.783Z,16.28
2023-05-23T02:43:41.783Z,16.39
2023-05-23T02:46:09.917Z,16.44
2023-05-23T02:48:38.203Z,16.46
2023-05-23T02:51:07.160Z,16.39
2023-05-23T02:53:36.569Z,16.36
2023-05-23T02:56:05.082Z,16.36
2023-05-23T02:58:35.558Z,16.32
2023-05-23T03:01:07.100Z,16.26
2023-05-23T03:03:36.597Z,16.28
2023-05-23T03:06:06.341Z,16.30
2023-05-23T03:08:36.048Z,16.33
2023-05-23T03:11:04.299Z,16.32
2023-05-23T03:13:32.601Z,16.25
2023-05-23T03:16:00.821Z,16.17
2023-05-23T03:18:29.321Z,16.20
2023-05-23T03:20:57.643Z,16.22
2023-05-23T03:23:25.614Z,16.23
2023-05-23T03:25:54.976Z,16.24
2023-05-23T03:28:23.083Z,16.22
2023-05-23T03:30:52.926Z,16.18
2023-05-23T03:33:21.254Z,16.15
2023-05-23T03:35:49.846Z,16.09
2023-05-23T03:38:17.942Z,16.01
2023-05-23T03:40:46.066Z,15.82
2023-05-23T03:43:15.967Z,15.70
2023-05-23T03:45:45.703Z,15.61
2023-05-23T03:48:16.054Z,15.59
2023-05-23T03:50:44.108Z,15.58
2023-05-23T03:53:13.111Z,15.62
2023-05-23T03:55:41.471Z,15.63
2023-05-23T03:58:12.802Z,15.65
2023-05-23T04:00:44.922Z,15.63
2023-05-23T04:03:15.321Z,15.61
2023-05-23T04:05:43.543Z,15.63
2023-05-23T04:08:11.863Z,15.65
2023-05-23T04:10:40.241Z,15.63
2023-05-23T04:13:09.704Z,15.59
2023-05-23T04:15:39.905Z,15.52
2023-05-23T04:18:16.109Z,15.45
2023-05-23T04:20:44.948Z,15.40
2023-05-23T04:23:14.073Z,15.39
2023-05-23T04:25:44.522Z,15.36
2023-05-23T04:28:33.036Z,15.36
2023-05-23T04:31:02.888Z,15.37
2023-05-23T04:33:35.705Z,15.33
2023-05-23T04:36:04.940Z,15.31
2023-05-23T04:38:33.425Z,15.30
2023-05-23T04:41:02.223Z,15.29
2023-05-23T04:44:00.533Z,15.25
2023-05-23T04:46:33.860Z,15.28
2023-05-23T04:49:11.570Z,15.29
2023-05-23T04:51:39.740Z,15.31
2023-05-23T04:54:17.270Z,15.38
2023-05-23T04:56:45.671Z,15.38
2023-05-23T04:59:13.747Z,15.40
2023-05-23T05:01:41.879Z,15.44
2023-05-23T05:04:12.427Z,15.46
2023-05-23T05:06:41.884Z,15.51
2023-05-23T05:09:10.716Z,15.50
2023-05-23T05:11:38.734Z,15.48
2023-05-23T05:14:07.590Z,15.52
2023-05-23T05:16:37.931Z,15.57
2023-05-23T05:19:06.462Z,15.63
2023-05-23T05:21:37.059Z,15.66
2023-05-23T05:24:05.391Z,15.70
2023-05-23T05:26:33.572Z,15.76
2023-05-23T05:29:01.768Z,15.79
2023-05-23T05:31:30.222Z,15.83
2023-05-23T05:33:58.272Z,15.86
2023-05-23T05:36:26.514Z,15.89
2023-05-23T05:38:56.405Z,15.90
2023-05-23T05:41:24.576Z,15.94
2023-05-23T05:43:54.802Z,15.98
2023-05-23T05:46:22.839Z,16.07
2023-05-23T05:48:52.102Z,16.13
2023-05-23T05:51:20.831Z,16.17
2023-05-23T05:53:50.633Z,16.22
2023-05-23T05:56:26.227Z,16.28
2023-05-23T05:58:54.666Z,16.37
2023-05-23T06:01:23.494Z,16.44
2023-05-23T06:03:51.703Z,16.54
2023-05-23T06:06:20.892Z,16.61
2023-05-23T06:08:49.486Z,16.69
2023-05-23T06:11:18.461Z,16.74
2023-05-23T06:13:48.107Z,16.82
2023-05-23T06:16:16.243Z,16.89
2023-05-23T06:18:46.308Z,16.92
2023-05-23T06:21:14.899Z,16.89
2023-05-23T06:23:42.990Z,16.87
2023-05-23T06:26:11.084Z,16.82
2023-05-23T06:28:39.871Z,16.85
2023-05-23T06:31:10.980Z,16.92
2023-05-23T06:33:39.751Z,17.01
2023-05-23T06:36:08.304Z,17.01
2023-05-23T06:38:36.278Z,17.04
2023-05-23T06:41:07.077Z,17.08
2023-05-23T06:43:36.252Z,17.16
2023-05-23T06:46:17.098Z,17.24
2023-05-23T06:48:45.679Z,17.32
2023-05-23T06:51:13.784Z,17.37
2023-05-23T06:53:43.235Z,17.41
2023-05-23T06:56:11.537Z,17.52
2023-05-23T06:58:52.783Z,17.68
2023-05-23T07:01:22.492Z,17.80
2023-05-23T07:03:52.009Z,17.87
2023-05-23T07:06:21.144Z,17.92
2023-05-23T07:08:49.303Z,18.05
2023-05-23T07:11:18.576Z,18.21
2023-05-23T07:13:53.341Z,18.38
2023-05-23T07:16:32.742Z,18.40
2023-05-23T07:19:07.607Z,18.45
2023-05-23T07:21:47.019Z,18.40
2023-05-23T07:24:19.947Z,18.36
2023-05-23T07:26:48.936Z,18.44
2023-05-23T07:29:16.934Z,18.55
2023-05-23T07:31:48.493Z,18.60
2023-05-23T07:34:16.706Z,18.68
2023-05-23T07:36:57.802Z,18.81
2023-05-23T07:39:28.293Z,18.95
2023-05-23T07:42:01.625Z,19.03
2023-05-23T07:44:29.849Z,19.07
2023-05-23T07:47:00.989Z,19.03
2023-05-23T07:49:30.164Z,19.01
2023-05-23T07:51:59.016Z,18.99
2023-05-23T07:54:27.784Z,18.98
2023-05-23T07:56:59.861Z,19.02
2023-05-23T07:59:30.780Z,19.02
2023-05-23T08:02:10.915Z,19.03
2023-05-23T08:04:40.414Z,19.04
2023-05-23T08:07:09.817Z,19.07
2023-05-23T08:09:46.795Z,19.23
2023-05-23T08:12:19.168Z,19.35
2023-05-23T08:14:52.055Z,19.46
2023-05-23T08:17:35.118Z,19.53
2023-05-23T08:20:05.209Z,19.61
2023-05-23T08:22:33.494Z,19.75
2023-05-23T08:25:03.107Z,19.89
2023-05-23T08:27:34.146Z,20.03
2023-05-23T08:30:09.822Z,20.17
2023-05-23T08:32:40.291Z,20.33
2023-05-23T08:35:09.799Z,20.43
2023-05-23T08:37:39.100Z,20.52
2023-05-23T08:40:09.804Z,20.63
2023-05-23T08:42:43.602Z,20.75
2023-05-23T08:45:13.611Z,20.85
2023-05-23T08:47:48.506Z,20.95
2023-05-23T08:50:22.902Z,20.98
2023-05-23T08:52:57.279Z,21.04
2023-05-23T08:55:29.382Z,21.03
2023-05-23T08:58:00.821Z,21.05
2023-05-23T09:00:47.841Z,21.10
2023-05-23T09:03:21.400Z,21.15
2023-05-23T09:05:58.971Z,21.19
2023-05-23T09:08:28.614Z,21.20
2023-05-23T09:11:02.784Z,21.17
2023-05-23T09:13:32.961Z,21.16
2023-05-23T09:16:04.537Z,21.17
2023-05-23T09:18:40.716Z,21.19
2023-05-23T09:21:09.753Z,21.15
2023-05-23T09:23:42.220Z,21.19
2023-05-23T09:26:13.332Z,21.24
2023-05-23T09:28:43.888Z,21.33
2023-05-23T09:31:12.613Z,21.35
2023-05-23T09:33:44.619Z,21.40
2023-05-23T09:36:12.875Z,21.54
2023-05-23T09:38:41.091Z,21.68
2023-05-23T09:41:12.377Z,21.86
2023-05-23T09:43:42.946Z,22.01
2023-05-23T09:46:12.147Z,22.12
2023-05-23T09:48:40.154Z,22.25
2023-05-23T09:51:12.514Z,22.28
2023-05-23T09:53:40.742Z,22.31
2023-05-23T09:56:11.552Z,22.31
2023-05-23T09:58:40.085Z,22.33
2023-05-23T10:01:08.653Z,22.17
2023-05-23T10:03:40.186Z,22.11
2023-05-23T10:06:12.174Z,22.08
2023-05-23T10:08:43.304Z,22.14
2023-05-23T10:11:50.653Z,22.25
2023-05-23T10:14:18.733Z,22.51
2023-05-23T10:16:53.211Z,22.71
2023-05-23T10:19:25.551Z,22.94
2023-05-23T10:22:03.037Z,23.19
2023-05-23T10:24:33.500Z,23.40
2023-05-23T10:27:02.552Z,23.50
2023-05-23T10:29:31.374Z,23.66
2023-05-23T10:32:00.394Z,23.61
2023-05-23T10:34:33.028Z,23.54
2023-05-23T10:37:04.303Z,23.26
2023-05-23T10:39:46.082Z,23.00
2023-05-23T10:42:18.941Z,22.81
2023-05-23T10:44:48.317Z,22.68
2023-05-23T10:47:20.151Z,22.64
2023-05-23T10:49:48.773Z,22.52
2023-05-23T10:52:18.952Z,22.55
2023-05-23T10:54:48.977Z,22.51
2023-05-23T10:57:18.658Z,22.50
2023-05-23T10:59:49.496Z,22.49
2023-05-23T11:02:18.329Z,22.42
2023-05-23T11:04:53.930Z,22.38
2023-05-23T11:07:37.301Z,22.40
2023-05-23T11:10:12.644Z,22.44
2023-05-23T11:12:45.051Z,22.44
2023-05-23T11:15:23.382Z,22.58
2023-05-23T11:17:52.819Z,22.67
2023-05-23T11:20:24.712Z,22.67
2023-05-23T11:23:07.321Z,22.67
2023-05-23T11:25:43.100Z,22.76
2023-05-23T11:28:14.607Z,22.84
2023-05-23T11:30:44.017Z,22.95
2023-05-23T11:33:15.705Z,23.01
2023-05-23T11:35:48.865Z,22.92
2023-05-23T11:38:18.918Z,22.89
2023-05-23T11:40:47.657Z,22.92
2023-05-23T11:43:18.215Z,23.05
2023-05-23T11:45:47.504Z,23.23
2023-05-23T11:48:20.482Z,23.31
2023-05-23T11:50:50.264Z,23.32
2023-05-23T11:53:21.603Z,23.42
2023-05-23T11:55:50.804Z,23.45
2023-05-23T11:58:18.922Z,23.44
2023-05-23T12:00:47.744Z,23.42
2023-05-23T12:03:16.522Z,23.47
2023-05-23T12:05:45.664Z,23.56
2023-05-23T12:08:14.551Z,23.74
2023-05-23T12:10:52.848Z,23.97
2023-05-23T12:13:21.415Z,24.11
2023-05-23T12:15:52.640Z,24.12
2023-05-23T12:18:21.730Z,24.11
2023-05-23T12:20:50.395Z,24.21
2023-05-23T12:23:22.387Z,24.17
2023-05-23T12:25:53.803Z,24.08
2023-05-23T12:28:22.081Z,24.07
2023-05-23T12:30:50.333Z,24.04
2023-05-23T12:33:20.788Z,23.95
2023-05-23T12:35:49.056Z,23.93
2023-05-23T12:38:18.057Z,23.97
2023-05-23T12:40:46.207Z,23.88
2023-05-23T12:43:16.579Z,23.82
2023-05-23T12:45:44.950Z,23.79
2023-05-23T12:48:13.092Z,23.82
2023-05-23T12:50:41.345Z,23.93
2023-05-23T12:53:09.373Z,24.14
2023-05-23T12:55:38.536Z,24.23
2023-05-23T12:58:07.258Z,24.40
2023-05-23T13:00:36.887Z,24.70
2023-05-23T13:03:06.636Z,24.86
2023-05-23T13:05:34.839Z,24.93
2023-05-23T13:08:03.562Z,24.95
2023-05-23T13:10:32.445Z,24.96
2023-05-23T13:13:01.284Z,24.95
2023-05-23T13:15:31.687Z,24.99
2023-05-23T13:18:02.881Z,25.05
2023-05-23T13:20:31.682Z,25.10
2023-05-23T13:23:00.941Z,25.25
2023-05-23T13:25:29.134Z,25.45
2023-05-23T13:27:57.404Z,25.64
2023-05-23T13:30:25.517Z,25.80
2023-05-23T13:32:53.873Z,25.90
2023-05-23T13:35:23.711Z,25.87
2023-05-23T13:37:51.881Z,25.86
2023-05-23T13:40:20.662Z,25.85
2023-05-23T13:42:49.110Z,25.76
2023-05-23T13:45:17.733Z,25.69
2023-05-23T13:47:46.697Z,25.74
2023-05-23T13:50:14.977Z,25.73
2023-05-23T13:52:47.309Z,25.75
2023-05-23T13:55:18.559Z,25.77
2023-05-23T13:57:47.315Z,25.80
2023-05-23T14:00:16.308Z,25.87
2023-05-23T14:02:44.613Z,26.05
2023-05-23T14:05:12.884Z,26.46
2023-05-23T14:07:45.269Z,27.00
2023-05-23T14:10:15.396Z,27.45
2023-05-23T14:12:44.712Z,27.76
2023-05-23T14:15:13.768Z,27.74
2023-05-23T14:17:43.092Z,27.73
2023-05-23T14:20:12.054Z,27.84
2023-05-23T14:22:42.182Z,27.99
2023-05-23T14:25:11.164Z,28.19
2023-05-23T14:27:42.053Z,28.26
2023-05-23T14:30:11.373Z,28.41
2023-05-23T14:32:40.965Z,28.66
2023-05-23T14:35:11.192Z,28.77
2023-05-23T14:37:39.423Z,28.84
2023-05-23T14:40:10.126Z,28.85
2023-05-23T14:42:40.381Z,28.95
2023-05-23T14:45:09.069Z,28.98
2023-05-23T14:47:37.526Z,28.76
2023-05-23T14:50:06.188Z,28.75
2023-05-23T14:52:35.911Z,29.03
2023-05-23T14:55:03.985Z,28.98
2023-05-23T14:57:32.015Z,28.91
2023-05-23T15:00:03.109Z,28.89
2023-05-23T15:02:31.545Z,28.65
2023-05-23T15:04:59.503Z,28.55
2023-05-23T15:07:27.612Z,28.15
2023-05-23T15:09:55.613Z,27.99
2023-05-23T15:12:23.616Z,27.97
2023-05-23T15:14:52.090Z,27.63
2023-05-23T15:17:25.729Z,27.57
2023-05-23T15:19:56.937Z,27.79
2023-05-23T15:24:57.469Z,27.59
2023-05-23T15:27:25.770Z,27.79
2023-05-23T15:29:54.347Z,27.95
2023-05-23T15:32:24.190Z,28.12
2023-05-23T15:34:52.680Z,28.21
2023-05-23T15:37:21.005Z,28.47
2023-05-23T15:39:49.410Z,28.61
2023-05-23T15:42:17.454Z,28.76
2023-05-23T15:44:46.319Z,28.61
2023-05-23T15:47:14.584Z,28.34
2023-05-23T15:49:44.269Z,28.24
2023-05-23T15:52:12.518Z,27.98
2023-05-23T15:54:40.466Z,27.66
2023-05-23T15:57:08.515Z,27.66
2023-05-23T15:59:37.688Z,27.80
2023-05-23T16:02:09.336Z,27.90
2023-05-23T16:04:41.750Z,27.99
2023-05-23T16:07:12.729Z,28.26
2023-05-23T16:09:41.892Z,28.31
2023-05-23T16:12:15.442Z,28.56
2023-05-23T16:14:43.752Z,28.66
2023-05-23T16:17:11.990Z,28.85
2023-05-23T16:19:40.760Z,29.03
2023-05-23T16:22:09.220Z,29.08
2023-05-23T16:24:39.006Z,28.98
2023-05-23T16:27:07.544Z,29.03
2023-05-23T16:29:36.370Z,28.98
2023-05-23T16:32:05.251Z,28.86
2023-05-23T16:34:34.710Z,28.89
2023-05-23T16:37:02.720Z,28.85
2023-05-23T16:39:30.741Z,28.81
2023-05-23T16:42:00.609Z,28.89
2023-05-23T16:44:28.736Z,28.64
2023-05-23T16:46:56.745Z,28.55
2023-05-23T16:49:24.745Z,28.55
2023-05-23T16:51:52.690Z,28.37
2023-05-23T16:54:20.646Z,28.32
2023-05-23T16:56:48.595Z,28.32
2023-05-23T16:59:18.056Z,28.37
2023-05-23T17:01:46.109Z,28.37
2023-05-23T17:04:14.265Z,28.41
2023-05-23T17:06:42.236Z,28.31
2023-05-23T17:09:10.134Z,27.98
2023-05-23T17:11:38.195Z,27.51
2023-05-23T17:14:06.139Z,26.99
2023-05-23T17:16:35.534Z,26.49
2023-05-23T17:19:03.583Z,26.04
2023-05-23T17:21:31.562Z,25.73
2023-05-23T17:23:59.609Z,25.66
2023-05-23T17:26:28.047Z,25.67
2023-05-23T17:28:56.081Z,25.63
2023-05-23T17:31:24.077Z,25.63
2023-05-23T17:33:53.453Z,25.55
2023-05-23T17:36:21.362Z,25.47
2023-05-23T17:38:49.317Z,25.33
2023-05-23T17:41:17.591Z,25.24
2023-05-23T17:43:45.718Z,25.19
2023-05-23T17:46:13.663Z,25.09
2023-05-23T17:48:47.570Z,25.11
2023-05-23T17:51:17.550Z,25.14
2023-05-23T17:53:45.485Z,25.00
2023-05-23T17:56:13.434Z,24.74
2023-05-23T17:58:43.898Z,24.37
2023-05-23T18:01:13.640Z,23.97
2023-05-23T18:03:41.772Z,23.67
2023-05-23T18:06:09.709Z,23.46
2023-05-23T18:08:39.109Z,23.39
2023-05-23T18:11:07.071Z,23.39
2023-05-23T18:13:35.326Z,23.43
2023-05-23T18:16:03.235Z,23.33
2023-05-23T18:18:31.670Z,23.31
2023-05-23T18:20:59.740Z,23.28
2023-05-23T18:23:27.742Z,23.26
2023-05-23T18:25:57.763Z,23.18
2023-05-23T18:28:25.910Z,23.11
2023-05-23T18:30:53.812Z,23.01
2023-05-23T18:33:22.060Z,22.89
2023-05-23T18:35:51.108Z,22.77
2023-05-23T18:38:19.130Z,22.64
2023-05-23T18:40:47.129Z,22.55
2023-05-23T18:43:17.593Z,22.40
2023-05-23T18:45:45.710Z,22.27
2023-05-23T18:48:13.665Z,22.20
2023-05-23T18:50:41.825Z,22.17
2023-05-23T18:53:10.062Z,22.11
2023-05-23T18:55:38.472Z,22.07
2023-05-23T18:58:06.421Z,22.08
2023-05-23T19:00:35.766Z,22.00
2023-05-23T19:03:03.843Z,21.94
2023-05-23T19:05:31.880Z,21.92
2023-05-23T19:07:59.937Z,21.88
2023-05-23T19:10:27.847Z,21.86
2023-05-23T19:12:55.827Z,21.88
2023-05-23T19:15:24.290Z,21.83
2023-05-23T19:17:53.772Z,21.83
2023-05-23T19:20:22.079Z,21.87
2023-05-23T19:22:51.500Z,21.89
2023-05-23T19:25:20.928Z,21.84
2023-05-23T19:27:48.888Z,21.82
2023-05-23T19:30:17.132Z,21.81
2023-05-23T19:32:45.231Z,21.79
2023-05-23T19:35:16.871Z,21.66
2023-05-23T19:37:45.416Z,21.54
2023-05-23T19:40:15.119Z,21.36
2023-05-23T19:42:43.188Z,21.27
2023-05-23T19:45:12.238Z,21.14
2023-05-23T19:47:40.285Z,20.94
2023-05-23T19:50:10.274Z,20.76
2023-05-23T19:52:39.564Z,20.57
2023-05-23T19:55:08.443Z,20.40
2023-05-23T19:57:36.436Z,20.25
2023-05-23T20:00:05.633Z,20.13
2023-05-23T20:02:34.261Z,20.08
2023-05-23T20:05:02.220Z,20.05
2023-05-23T20:07:30.617Z,20.00
2023-05-23T20:09:59.915Z,19.96
2023-05-23T20:12:27.892Z,20.01
2023-05-23T20:14:55.834Z,20.03
2023-05-23T20:17:23.855Z,20.02
2023-05-23T20:19:51.816Z,20.02
2023-05-23T20:22:19.803Z,20.00
2023-05-23T20:24:47.753Z,19.95
2023-05-23T20:27:17.050Z,19.92
2023-05-23T20:29:45.100Z,19.88
2023-05-23T20:32:13.011Z,19.86
2023-05-23T20:34:41.388Z,19.84
2023-05-23T20:37:09.308Z,19.87
2023-05-23T20:39:37.579Z,19.86
2023-05-23T20:42:06.233Z,19.85
2023-05-23T20:44:37.771Z,19.85
2023-05-23T20:47:06.745Z,19.89
2023-05-23T20:49:34.927Z,19.88
2023-05-23T20:52:02.972Z,19.80
2023-05-23T20:54:30.901Z,19.71
2023-05-23T20:56:58.945Z,19.62
2023-05-23T20:59:26.891Z,19.55
2023-05-23T21:01:56.398Z,19.50
2023-05-23T21:04:24.372Z,19.47
2023-05-23T21:06:52.301Z,19.47
2023-05-23T21:09:20.175Z,19.45
2023-05-23T21:11:48.330Z,19.43
2023-05-23T21:14:16.302Z,19.45
2023-05-23T21:16:44.310Z,19.46
2023-05-23T21:19:13.683Z,19.41
2023-05-23T21:21:41.697Z,19.26
2023-05-23T21:24:09.618Z,19.15
2023-05-23T21:26:37.534Z,19.10
2023-05-23T21:29:05.488Z,19.05
2023-05-23T21:31:41.490Z,19.03
2023-05-23T21:34:22.207Z,18.97
2023-05-23T21:36:53.036Z,18.87
2023-05-23T21:39:21.006Z,18.86
2023-05-23T21:41:48.928Z,18.84
2023-05-23T21:44:17.701Z,18.85
2023-05-23T21:46:46.128Z,18.88
2023-05-23T21:49:14.353Z,18.88
2023-05-23T21:51:42.304Z,18.85
2023-05-23T21:54:11.654Z,18.84
2023-05-23T21:56:39.544Z,18.79
2023-05-23T21:59:07.473Z,18.75
2023-05-23T22:01:35.665Z,18.73
2023-05-23T22:04:03.842Z,18.71
2023-05-23T22:06:33.248Z,18.64
2023-05-23T22:09:01.709Z,18.57
2023-05-23T22:11:34.010Z,18.48
2023-05-23T22:14:02.275Z,18.42
2023-05-23T22:16:32.876Z,18.41
2023-05-23T22:19:02.117Z,18.46
2023-05-23T22:21:30.249Z,18.46
2023-05-23T22:23:58.726Z,18.47
2023-05-23T22:26:26.996Z,18.49
2023-05-23T22:28:56.385Z,18.50
2023-05-23T22:31:24.987Z,18.54
2023-05-23T22:33:53.006Z,18.56
2023-05-23T22:36:21.957Z,18.58
2023-05-23T22:38:49.981Z,18.59
2023-05-23T22:41:17.930Z,18.61
2023-05-23T22:43:46.828Z,18.60
2023-05-23T22:46:16.442Z,18.58
2023-05-23T22:48:45.100Z,18.59
2023-05-23T22:51:14.622Z,18.61
2023-05-23T22:53:43.312Z,18.60
2023-05-23T22:56:11.374Z,18.54
2023-05-23T22:58:39.279Z,18.47
2023-05-23T23:01:07.338Z,18.43
2023-05-23T23:03:36.639Z,18.36
2023-05-23T23:06:06.285Z,18.30
2023-05-23T23:08:34.585Z,18.23
2023-05-23T23:11:02.595Z,18.18
2023-05-23T23:13:30.775Z,18.15
2023-05-23T23:15:59.644Z,18.11
2023-05-23T23:18:27.965Z,18.10
2023-05-23T23:20:57.237Z,18.06
2023-05-23T23:23:25.212Z,18.02
2023-05-23T23:25:53.155Z,18.04
2023-05-23T23:28:21.228Z,18.03
2023-05-23T23:30:49.326Z,17.97
2023-05-23T23:33:17.408Z,17.88
2023-05-23T23:35:48.500Z,17.82
2023-05-23T23:38:18.060Z,17.78
2023-05-23T23:40:45.974Z,17.73
2023-05-23T23:43:14.093Z,17.72
2023-05-23T23:45:42.360Z,17.65
2023-05-23T23:48:10.381Z,17.54
2023-05-23T23:50:38.319Z,17.47
2023-05-23T23:53:06.533Z,17.45
2023-05-23T23:55:35.857Z,17.38
2023-05-23T23:58:03.808Z,17.36
